sensor_id;sensor_type;location;lat;lon;timestamp;P1;P2;P0
45700;PMS5003;36277;32.852;-116.998;2023-05-10T00:01:39;0.00;0.00;0.00
45700;PMS5003;36277;32.852;-116.998;2023-05-10T00:04:05;0.00;0.00;0.00
45700;PMS5003;36277;32.852;-116.998;2023-05-10T00:06:32;0.00;0.00;0.00
45700;PMS5003;36277;32.852;-116.998;2023-05-10T00:08:59;0.00;0.00;0.00
45700;PMS5003;36277;32.852;-116.998;2023-05-10T00:11:25;0.00;0.00;0.00
45700;PMS5003;36277;32.852;-116.998;2023-05-10T00:13:51;0.00;0.00;0.00
45700;PMS5003;36277;32.852;-116.998;2023-05-10T00:16:18;0.00;0.00;0.00
45700;PMS5003;36277;32.852;-116.998;2023-05-10T00:18:44;0.00;0.00;0.00
45700;PMS5003;36277;32.852;-116.998;2023-05-10T00:21:10;0.00;0.00;0.00
45700;PMS5003;36277;32.852;-116.998;2023-05-10T00:23:36;0.00;0.00;0.00
45700;PMS5003;36277;32.852;-116.998;2023-05-10T00:26:03;0.00;0.00;0.00
45700;PMS5003;36277;32.852;-116.998;2023-05-10T00:28:29;0.00;0.00;0.00
45700;PMS5003;36277;32.852;-116.998;2023-05-10T00:30:55;0.00;0.00;0.00
45700;PMS5003;36277;32.852;-116.998;2023-05-10T00:33:22;0.00;0.00;0.00
45700;PMS5003;36277;32.852;-116.998;2023-05-10T00:35:48;0.00;0.00;0.00
45700;PMS5003;36277;32.852;-116.998;2023-05-10T00:38:14;0.00;0.00;0.00
45700;PMS5003;36277;32.852;-116.998;2023-05-10T00:40:41;0.00;0.00;0.00
45700;PMS5003;36277;32.852;-116.998;2023-05-10T00:43:07;0.00;0.00;0.00
45700;PMS5003;36277;32.852;-116.998;2023-05-10T00:45:33;0.00;0.00;0.00
45700;PMS5003;36277;32.852;-116.998;2023-05-10T00:48:02;0.40;0.40;0.00
45700;PMS5003;36277;32.852;-116.998;2023-05-10T00:50:30;1.00;1.00;1.00
45700;PMS5003;36277;32.852;-116.998;2023-05-10T00:52:58;48.75;41.50;29.50
45700;PMS5003;36277;32.852;-116.998;2023-05-10T00:55:25;61.25;50.25;34.50
45700;PMS5003;36277;32.852;-116.998;2023-05-10T00:57:52;56.00;45.50;30.50
45700;PMS5003;36277;32.852;-116.998;2023-05-10T01:00:19;85.20;84.40;55.80
45700;PMS5003;36277;32.852;-116.998;2023-05-10T01:02:45;106.80;104.60;70.80
45700;PMS5003;36277;32.852;-116.998;2023-05-10T01:05:12;119.80;112.40;73.60
45700;PMS5003;36277;32.852;-116.998;2023-05-10T01:07:39;101.40;99.80;68.00
45700;PMS5003;36277;32.852;-116.998;2023-05-10T01:10:06;75.40;69.00;51.00
45700;PMS5003;36277;32.852;-116.998;2023-05-10T01:12:34;73.20;67.40;49.00
45700;PMS5003;36277;32.852;-116.998;2023-05-10T01:15:05;81.20;80.20;55.80
45700;PMS5003;36277;32.852;-116.998;2023-05-10T01:17:34;72.80;65.80;46.60
45700;PMS5003;36277;32.852;-116.998;2023-05-10T01:20:03;71.80;65.40;44.00
45700;PMS5003;36277;32.852;-116.998;2023-05-10T01:22:39;69.80;59.80;41.80
45700;PMS5003;36277;32.852;-116.998;2023-05-10T01:25:28;162.75;160.50;116.50
45700;PMS5003;36277;32.852;-116.998;2023-05-10T01:29:06;121.40;116.80;76.60
45700;PMS5003;36277;32.852;-116.998;2023-05-10T01:33:52;62.25;51.25;34.75
45700;PMS5003;36277;32.852;-116.998;2023-05-10T01:39:11;35.00;32.50;22.50
45700;PMS5003;36277;32.852;-116.998;2023-05-10T01:42:21;31.00;30.00;22.00
45700;PMS5003;36277;32.852;-116.998;2023-05-10T01:50:48;14.20;14.20;10.20
45700;PMS5003;36277;32.852;-116.998;2023-05-10T01:53:17;9.00;9.00;7.00
45700;PMS5003;36277;32.852;-116.998;2023-05-10T01:55:47;9.20;9.20;8.00
45700;PMS5003;36277;32.852;-116.998;2023-05-10T01:58:25;8.80;8.80;7.00
45700;PMS5003;36277;32.852;-116.998;2023-05-10T02:00:55;7.80;7.00;6.00
45700;PMS5003;36277;32.852;-116.998;2023-05-10T02:03:24;9.00;8.60;6.60
45700;PMS5003;36277;32.852;-116.998;2023-05-10T02:05:54;10.60;10.60;7.00
45700;PMS5003;36277;32.852;-116.998;2023-05-10T02:08:22;6.00;6.00;4.60
45700;PMS5003;36277;32.852;-116.998;2023-05-10T02:10:50;6.20;6.20;5.00
45700;PMS5003;36277;32.852;-116.998;2023-05-10T02:13:18;5.00;5.00;3.20
45700;PMS5003;36277;32.852;-116.998;2023-05-10T02:15:47;6.60;6.60;4.80
45700;PMS5003;36277;32.852;-116.998;2023-05-10T02:18:14;6.00;5.60;4.00
45700;PMS5003;36277;32.852;-116.998;2023-05-10T02:20:43;3.80;3.80;3.00
45700;PMS5003;36277;32.852;-116.998;2023-05-10T02:23:12;3.00;3.00;2.40
45700;PMS5003;36277;32.852;-116.998;2023-05-10T02:25:40;2.00;2.00;1.80
45700;PMS5003;36277;32.852;-116.998;2023-05-10T02:28:09;3.00;3.00;2.00
45700;PMS5003;36277;32.852;-116.998;2023-05-10T02:30:38;2.80;2.80;2.00
45700;PMS5003;36277;32.852;-116.998;2023-05-10T02:33:05;1.20;1.20;1.00
45700;PMS5003;36277;32.852;-116.998;2023-05-10T02:35:32;3.40;3.40;2.40
45700;PMS5003;36277;32.852;-116.998;2023-05-10T02:38:00;2.80;2.80;2.20
45700;PMS5003;36277;32.852;-116.998;2023-05-10T02:40:27;3.00;3.00;2.00
45700;PMS5003;36277;32.852;-116.998;2023-05-10T02:42:56;3.00;3.00;2.00
45700;PMS5003;36277;32.852;-116.998;2023-05-10T02:45:26;5.40;5.40;4.40
45700;PMS5003;36277;32.852;-116.998;2023-05-10T02:47:55;3.00;3.00;2.00
45700;PMS5003;36277;32.852;-116.998;2023-05-10T02:50:22;3.40;3.40;3.00
45700;PMS5003;36277;32.852;-116.998;2023-05-10T02:52:54;6.00;6.00;4.60
45700;PMS5003;36277;32.852;-116.998;2023-05-10T02:55:29;6.00;6.00;4.60
45700;PMS5003;36277;32.852;-116.998;2023-05-10T02:58:01;5.60;5.00;3.80
45700;PMS5003;36277;32.852;-116.998;2023-05-10T03:00:28;3.80;3.80;3.00
45700;PMS5003;36277;32.852;-116.998;2023-05-10T03:02:55;3.40;3.40;2.00
45700;PMS5003;36277;32.852;-116.998;2023-05-10T03:05:21;1.60;1.60;1.40
45700;PMS5003;36277;32.852;-116.998;2023-05-10T03:07:47;0.40;0.40;0.40
45700;PMS5003;36277;32.852;-116.998;2023-05-10T03:10:14;2.00;2.00;2.00
45700;PMS5003;36277;32.852;-116.998;2023-05-10T03:15:42;1.20;1.20;1.00
45700;PMS5003;36277;32.852;-116.998;2023-05-10T03:18:44;2.20;1.60;1.00
45700;PMS5003;36277;32.852;-116.998;2023-05-10T03:21:25;1.00;1.00;1.00
45700;PMS5003;36277;32.852;-116.998;2023-05-10T03:24:07;0.60;0.60;0.20
45700;PMS5003;36277;32.852;-116.998;2023-05-10T03:26:37;1.00;1.00;0.00
45700;PMS5003;36277;32.852;-116.998;2023-05-10T03:29:06;1.40;1.40;1.00
45700;PMS5003;36277;32.852;-116.998;2023-05-10T03:31:33;1.40;1.40;1.40
45700;PMS5003;36277;32.852;-116.998;2023-05-10T03:34:00;0.40;0.40;0.00
45700;PMS5003;36277;32.852;-116.998;2023-05-10T03:36:26;0.20;0.20;0.00
45700;PMS5003;36277;32.852;-116.998;2023-05-10T03:38:52;0.20;0.20;0.00
45700;PMS5003;36277;32.852;-116.998;2023-05-10T03:41:19;0.00;0.00;0.00
45700;PMS5003;36277;32.852;-116.998;2023-05-10T03:43:45;0.00;0.00;0.00
45700;PMS5003;36277;32.852;-116.998;2023-05-10T03:46:12;1.00;1.00;1.00
45700;PMS5003;36277;32.852;-116.998;2023-05-10T03:48:38;1.00;1.00;1.00
45700;PMS5003;36277;32.852;-116.998;2023-05-10T03:51:04;0.60;0.60;0.00
45700;PMS5003;36277;32.852;-116.998;2023-05-10T03:53:31;0.00;0.00;0.00
45700;PMS5003;36277;32.852;-116.998;2023-05-10T03:55:57;0.00;0.00;0.00
45700;PMS5003;36277;32.852;-116.998;2023-05-10T03:58:23;0.00;0.00;0.00
45700;PMS5003;36277;32.852;-116.998;2023-05-10T04:00:50;0.00;0.00;0.00
45700;PMS5003;36277;32.852;-116.998;2023-05-10T04:03:17;0.00;0.00;0.00
45700;PMS5003;36277;32.852;-116.998;2023-05-10T04:05:43;0.60;0.60;0.00
45700;PMS5003;36277;32.852;-116.998;2023-05-10T04:08:10;0.20;0.20;0.00
45700;PMS5003;36277;32.852;-116.998;2023-05-10T04:10:36;0.00;0.00;0.00
45700;PMS5003;36277;32.852;-116.998;2023-05-10T04:13:02;0.60;0.60;0.00
45700;PMS5003;36277;32.852;-116.998;2023-05-10T04:15:28;0.20;0.20;0.00
45700;PMS5003;36277;32.852;-116.998;2023-05-10T04:17:55;0.00;0.00;0.00
45700;PMS5003;36277;32.852;-116.998;2023-05-10T04:20:21;0.00;0.00;0.00
45700;PMS5003;36277;32.852;-116.998;2023-05-10T04:22:47;0.00;0.00;0.00
45700;PMS5003;36277;32.852;-116.998;2023-05-10T04:25:13;0.00;0.00;0.00
45700;PMS5003;36277;32.852;-116.998;2023-05-10T04:27:40;0.60;0.60;0.20
45700;PMS5003;36277;32.852;-116.998;2023-05-10T04:30:07;0.00;0.00;0.00
45700;PMS5003;36277;32.852;-116.998;2023-05-10T04:32:33;0.00;0.00;0.00
45700;PMS5003;36277;32.852;-116.998;2023-05-10T04:34:59;1.00;1.00;1.00
45700;PMS5003;36277;32.852;-116.998;2023-05-10T04:37:28;0.20;0.20;0.20
45700;PMS5003;36277;32.852;-116.998;2023-05-10T04:39:55;1.00;1.00;0.00
45700;PMS5003;36277;32.852;-116.998;2023-05-10T04:42:21;1.00;1.00;0.80
45700;PMS5003;36277;32.852;-116.998;2023-05-10T04:44:47;0.80;0.80;0.20
45700;PMS5003;36277;32.852;-116.998;2023-05-10T04:47:13;1.00;1.00;1.00
45700;PMS5003;36277;32.852;-116.998;2023-05-10T04:49:41;1.20;0.80;0.00
45700;PMS5003;36277;32.852;-116.998;2023-05-10T04:52:07;0.60;0.60;0.60
45700;PMS5003;36277;32.852;-116.998;2023-05-10T04:54:33;0.40;0.40;0.40
45700;PMS5003;36277;32.852;-116.998;2023-05-10T04:57:00;0.20;0.20;0.00
45700;PMS5003;36277;32.852;-116.998;2023-05-10T04:59:26;1.00;1.00;1.00
45700;PMS5003;36277;32.852;-116.998;2023-05-10T05:01:52;0.40;0.40;0.40
45700;PMS5003;36277;32.852;-116.998;2023-05-10T05:04:18;0.20;0.20;0.00
45700;PMS5003;36277;32.852;-116.998;2023-05-10T05:06:45;0.60;0.60;0.00
45700;PMS5003;36277;32.852;-116.998;2023-05-10T05:09:11;1.00;1.00;1.00
45700;PMS5003;36277;32.852;-116.998;2023-05-10T05:11:37;0.80;0.80;0.20
45700;PMS5003;36277;32.852;-116.998;2023-05-10T05:14:04;1.00;1.00;1.00
45700;PMS5003;36277;32.852;-116.998;2023-05-10T05:16:30;1.40;1.00;1.00
45700;PMS5003;36277;32.852;-116.998;2023-05-10T05:18:57;0.20;0.20;0.00
45700;PMS5003;36277;32.852;-116.998;2023-05-10T05:21:23;0.60;0.60;0.40
45700;PMS5003;36277;32.852;-116.998;2023-05-10T05:23:52;0.80;0.80;0.80
45700;PMS5003;36277;32.852;-116.998;2023-05-10T05:26:18;0.00;0.00;0.00
45700;PMS5003;36277;32.852;-116.998;2023-05-10T05:28:44;0.80;0.80;0.80
45700;PMS5003;36277;32.852;-116.998;2023-05-10T05:31:10;1.00;1.00;0.00
45700;PMS5003;36277;32.852;-116.998;2023-05-10T05:33:37;0.80;0.80;0.00
45700;PMS5003;36277;32.852;-116.998;2023-05-10T05:36:04;0.80;0.80;0.60
45700;PMS5003;36277;32.852;-116.998;2023-05-10T05:38:31;0.00;0.00;0.00
45700;PMS5003;36277;32.852;-116.998;2023-05-10T05:40:57;0.40;0.40;0.00
45700;PMS5003;36277;32.852;-116.998;2023-05-10T05:43:23;0.40;0.40;0.00
45700;PMS5003;36277;32.852;-116.998;2023-05-10T05:45:51;1.00;1.00;0.80
45700;PMS5003;36277;32.852;-116.998;2023-05-10T05:48:19;0.00;0.00;0.00
45700;PMS5003;36277;32.852;-116.998;2023-05-10T05:50:45;1.00;1.00;0.20
45700;PMS5003;36277;32.852;-116.998;2023-05-10T05:53:11;0.00;0.00;0.00
45700;PMS5003;36277;32.852;-116.998;2023-05-10T05:55:38;2.00;2.00;1.20
45700;PMS5003;36277;32.852;-116.998;2023-05-10T05:58:04;2.00;2.00;1.00
45700;PMS5003;36277;32.852;-116.998;2023-05-10T06:00:30;1.20;1.20;1.00
45700;PMS5003;36277;32.852;-116.998;2023-05-10T06:02:56;3.00;3.00;1.60
45700;PMS5003;36277;32.852;-116.998;2023-05-10T06:05:23;4.40;4.40;3.40
45700;PMS5003;36277;32.852;-116.998;2023-05-10T06:07:49;14.20;14.20;7.60
45700;PMS5003;36277;32.852;-116.998;2023-05-10T06:10:15;17.60;17.60;8.80
45700;PMS5003;36277;32.852;-116.998;2023-05-10T06:12:41;8.00;8.00;5.00
45700;PMS5003;36277;32.852;-116.998;2023-05-10T06:15:08;10.00;9.60;6.00
45700;PMS5003;36277;32.852;-116.998;2023-05-10T06:17:35;13.40;13.00;6.00
45700;PMS5003;36277;32.852;-116.998;2023-05-10T06:20:01;20.60;20.60;10.80
45700;PMS5003;36277;32.852;-116.998;2023-05-10T06:22:27;25.40;25.20;13.00
45700;PMS5003;36277;32.852;-116.998;2023-05-10T06:24:53;32.60;30.80;15.40
45700;PMS5003;36277;32.852;-116.998;2023-05-10T06:27:19;39.60;35.20;16.00
45700;PMS5003;36277;32.852;-116.998;2023-05-10T06:29:46;48.50;35.75;18.50
45700;PMS5003;36277;32.852;-116.998;2023-05-10T06:32:12;33.60;29.80;13.00
45700;PMS5003;36277;32.852;-116.998;2023-05-10T06:34:38;29.00;27.00;11.60
45700;PMS5003;36277;32.852;-116.998;2023-05-10T06:37:05;36.00;32.00;16.00
45700;PMS5003;36277;32.852;-116.998;2023-05-10T06:39:31;36.80;33.40;14.60
45700;PMS5003;36277;32.852;-116.998;2023-05-10T06:41:57;35.60;32.40;18.00
45700;PMS5003;36277;32.852;-116.998;2023-05-10T06:44:23;33.80;30.40;12.60
45700;PMS5003;36277;32.852;-116.998;2023-05-10T06:46:49;39.60;34.80;16.00
45700;PMS5003;36277;32.852;-116.998;2023-05-10T06:49:17;35.40;32.60;16.00
45700;PMS5003;36277;32.852;-116.998;2023-05-10T06:51:44;29.80;29.00;14.20
45700;PMS5003;36277;32.852;-116.998;2023-05-10T06:54:10;39.40;31.60;14.60
45700;PMS5003;36277;32.852;-116.998;2023-05-10T06:56:36;33.40;31.00;14.60
45700;PMS5003;36277;32.852;-116.998;2023-05-10T06:59:02;31.80;30.80;14.80
45700;PMS5003;36277;32.852;-116.998;2023-05-10T07:01:29;38.60;33.60;15.20
45700;PMS5003;36277;32.852;-116.998;2023-05-10T07:03:55;42.80;36.00;19.20
45700;PMS5003;36277;32.852;-116.998;2023-05-10T07:06:21;38.00;32.80;15.40
45700;PMS5003;36277;32.852;-116.998;2023-05-10T07:08:48;29.40;28.60;12.60
45700;PMS5003;36277;32.852;-116.998;2023-05-10T07:11:14;30.20;28.00;12.80
45700;PMS5003;36277;32.852;-116.998;2023-05-10T07:13:40;27.40;27.40;13.00
45700;PMS5003;36277;32.852;-116.998;2023-05-10T07:16:09;27.60;27.20;12.60
45700;PMS5003;36277;32.852;-116.998;2023-05-10T07:18:35;24.20;23.80;12.00
45700;PMS5003;36277;32.852;-116.998;2023-05-10T07:21:01;29.20;28.80;12.40
45700;PMS5003;36277;32.852;-116.998;2023-05-10T07:23:28;30.40;29.60;15.40
45700;PMS5003;36277;32.852;-116.998;2023-05-10T07:25:55;33.80;30.40;13.60
45700;PMS5003;36277;32.852;-116.998;2023-05-10T07:28:22;17.00;16.60;7.20
45700;PMS5003;36277;32.852;-116.998;2023-05-10T07:30:52;25.00;24.00;12.80
45700;PMS5003;36277;32.852;-116.998;2023-05-10T07:33:18;28.40;25.80;11.80
45700;PMS5003;36277;32.852;-116.998;2023-05-10T07:35:44;23.20;22.40;10.20
45700;PMS5003;36277;32.852;-116.998;2023-05-10T07:38:11;20.60;19.00;7.00
45700;PMS5003;36277;32.852;-116.998;2023-05-10T07:40:37;24.60;22.80;12.40
45700;PMS5003;36277;32.852;-116.998;2023-05-10T07:43:04;23.20;22.20;10.20
45700;PMS5003;36277;32.852;-116.998;2023-05-10T07:45:30;20.20;19.60;11.60
45700;PMS5003;36277;32.852;-116.998;2023-05-10T07:47:57;20.00;20.00;9.20
45700;PMS5003;36277;32.852;-116.998;2023-05-10T07:50:23;19.40;19.40;10.00
45700;PMS5003;36277;32.852;-116.998;2023-05-10T07:52:49;21.40;18.80;10.00
45700;PMS5003;36277;32.852;-116.998;2023-05-10T07:55:16;17.60;17.60;9.60
45700;PMS5003;36277;32.852;-116.998;2023-05-10T07:57:46;23.20;23.00;10.40
45700;PMS5003;36277;32.852;-116.998;2023-05-10T08:00:12;20.60;19.40;10.00
45700;PMS5003;36277;32.852;-116.998;2023-05-10T08:02:42;18.00;18.00;10.20
45700;PMS5003;36277;32.852;-116.998;2023-05-10T08:05:08;18.80;17.60;9.00
45700;PMS5003;36277;32.852;-116.998;2023-05-10T08:07:35;16.20;16.00;8.80
45700;PMS5003;36277;32.852;-116.998;2023-05-10T08:10:02;16.40;16.40;9.00
45700;PMS5003;36277;32.852;-116.998;2023-05-10T08:12:28;16.20;15.00;8.20
45700;PMS5003;36277;32.852;-116.998;2023-05-10T08:14:55;16.80;15.60;7.60
45700;PMS5003;36277;32.852;-116.998;2023-05-10T08:17:22;14.80;14.80;7.40
45700;PMS5003;36277;32.852;-116.998;2023-05-10T08:19:48;14.20;14.00;7.80
45700;PMS5003;36277;32.852;-116.998;2023-05-10T08:22:14;9.80;8.80;7.00
45700;PMS5003;36277;32.852;-116.998;2023-05-10T08:24:41;13.40;13.00;7.00
45700;PMS5003;36277;32.852;-116.998;2023-05-10T08:27:08;14.80;14.00;7.60
45700;PMS5003;36277;32.852;-116.998;2023-05-10T08:29:34;15.80;15.80;9.20
45700;PMS5003;36277;32.852;-116.998;2023-05-10T08:32:00;14.80;14.60;8.40
45700;PMS5003;36277;32.852;-116.998;2023-05-10T08:34:27;14.00;13.00;6.80
45700;PMS5003;36277;32.852;-116.998;2023-05-10T08:36:53;14.80;13.80;6.00
45700;PMS5003;36277;32.852;-116.998;2023-05-10T08:39:19;11.80;11.80;6.00
45700;PMS5003;36277;32.852;-116.998;2023-05-10T08:41:46;10.00;10.00;5.20
45700;PMS5003;36277;32.852;-116.998;2023-05-10T08:44:13;12.20;12.20;6.60
45700;PMS5003;36277;32.852;-116.998;2023-05-10T08:46:41;10.60;10.20;7.00
45700;PMS5003;36277;32.852;-116.998;2023-05-10T08:49:12;12.60;12.20;6.60
45700;PMS5003;36277;32.852;-116.998;2023-05-10T08:51:44;10.20;10.20;6.00
45700;PMS5003;36277;32.852;-116.998;2023-05-10T08:54:17;11.00;10.20;6.00
45700;PMS5003;36277;32.852;-116.998;2023-05-10T08:56:44;10.60;9.60;4.60
45700;PMS5003;36277;32.852;-116.998;2023-05-10T08:59:10;11.80;11.60;6.00
45700;PMS5003;36277;32.852;-116.998;2023-05-10T09:01:38;11.60;11.40;5.80
45700;PMS5003;36277;32.852;-116.998;2023-05-10T09:04:05;12.40;12.40;6.00
45700;PMS5003;36277;32.852;-116.998;2023-05-10T09:06:32;9.40;9.40;5.40
45700;PMS5003;36277;32.852;-116.998;2023-05-10T09:08:59;7.00;7.00;5.00
45700;PMS5003;36277;32.852;-116.998;2023-05-10T09:11:26;11.40;9.00;5.60
45700;PMS5003;36277;32.852;-116.998;2023-05-10T09:13:54;10.40;10.40;5.00
45700;PMS5003;36277;32.852;-116.998;2023-05-10T09:16:21;6.80;6.80;3.80
45700;PMS5003;36277;32.852;-116.998;2023-05-10T09:18:48;9.60;9.60;5.80
45700;PMS5003;36277;32.852;-116.998;2023-05-10T09:21:15;8.20;8.20;5.00
45700;PMS5003;36277;32.852;-116.998;2023-05-10T09:23:45;9.40;9.40;5.20
45700;PMS5003;36277;32.852;-116.998;2023-05-10T09:26:12;8.80;8.80;5.00
45700;PMS5003;36277;32.852;-116.998;2023-05-10T09:29:11;6.20;5.80;3.40
45700;PMS5003;36277;32.852;-116.998;2023-05-10T09:31:44;6.20;6.20;4.00
45700;PMS5003;36277;32.852;-116.998;2023-05-10T09:34:20;8.40;8.40;5.40
45700;PMS5003;36277;32.852;-116.998;2023-05-10T09:36:58;9.20;8.60;5.20
45700;PMS5003;36277;32.852;-116.998;2023-05-10T09:39:32;8.00;7.80;4.00
45700;PMS5003;36277;32.852;-116.998;2023-05-10T09:42:06;6.00;6.00;4.00
45700;PMS5003;36277;32.852;-116.998;2023-05-10T09:44:35;5.20;5.20;3.00
45700;PMS5003;36277;32.852;-116.998;2023-05-10T09:47:03;7.20;7.20;4.00
45700;PMS5003;36277;32.852;-116.998;2023-05-10T09:49:30;7.00;7.00;4.60
45700;PMS5003;36277;32.852;-116.998;2023-05-10T09:52:00;8.00;8.00;4.80
45700;PMS5003;36277;32.852;-116.998;2023-05-10T09:54:27;8.60;7.40;5.00
45700;PMS5003;36277;32.852;-116.998;2023-05-10T09:56:54;6.60;6.60;3.00
45700;PMS5003;36277;32.852;-116.998;2023-05-10T09:59:20;8.40;8.40;5.00
45700;PMS5003;36277;32.852;-116.998;2023-05-10T10:01:50;7.00;7.00;4.40
45700;PMS5003;36277;32.852;-116.998;2023-05-10T10:04:17;4.00;4.00;2.40
45700;PMS5003;36277;32.852;-116.998;2023-05-10T10:06:46;4.00;4.00;2.00
45700;PMS5003;36277;32.852;-116.998;2023-05-10T10:09:12;5.00;5.00;3.00
45700;PMS5003;36277;32.852;-116.998;2023-05-10T10:11:40;4.40;4.40;2.60
45700;PMS5003;36277;32.852;-116.998;2023-05-10T10:14:06;6.20;6.00;3.00
45700;PMS5003;36277;32.852;-116.998;2023-05-10T10:16:32;5.20;5.20;4.00
45700;PMS5003;36277;32.852;-116.998;2023-05-10T10:18:59;7.00;7.00;3.80
45700;PMS5003;36277;32.852;-116.998;2023-05-10T10:21:26;6.40;6.40;4.00
45700;PMS5003;36277;32.852;-116.998;2023-05-10T10:23:52;3.20;3.20;2.80
45700;PMS5003;36277;32.852;-116.998;2023-05-10T10:26:19;5.80;5.80;3.00
45700;PMS5003;36277;32.852;-116.998;2023-05-10T10:31:40;4.40;4.40;2.60
45700;PMS5003;36277;32.852;-116.998;2023-05-10T10:34:30;4.20;4.20;3.00
45700;PMS5003;36277;32.852;-116.998;2023-05-10T10:36:57;4.00;4.00;3.00
45700;PMS5003;36277;32.852;-116.998;2023-05-10T10:39:30;4.80;4.80;3.00
45700;PMS5003;36277;32.852;-116.998;2023-05-10T10:41:57;5.40;5.40;3.00
45700;PMS5003;36277;32.852;-116.998;2023-05-10T10:44:26;4.60;4.60;3.40
45700;PMS5003;36277;32.852;-116.998;2023-05-10T10:57:55;4.80;4.80;3.80
45700;PMS5003;36277;32.852;-116.998;2023-05-10T11:00:31;3.20;3.20;2.00
45700;PMS5003;36277;32.852;-116.998;2023-05-10T11:03:05;2.40;2.40;2.00
45700;PMS5003;36277;32.852;-116.998;2023-05-10T11:05:49;3.60;3.60;2.40
45700;PMS5003;36277;32.852;-116.998;2023-05-10T11:08:19;4.60;4.60;3.00
45700;PMS5003;36277;32.852;-116.998;2023-05-10T11:11:08;2.00;2.00;1.00
45700;PMS5003;36277;32.852;-116.998;2023-05-10T11:13:40;4.00;4.00;3.00
45700;PMS5003;36277;32.852;-116.998;2023-05-10T11:16:17;2.80;2.80;1.80
45700;PMS5003;36277;32.852;-116.998;2023-05-10T11:18:51;3.60;3.60;2.00
45700;PMS5003;36277;32.852;-116.998;2023-05-10T11:21:18;2.00;2.00;2.00
45700;PMS5003;36277;32.852;-116.998;2023-05-10T11:26:41;4.00;4.00;2.00
45700;PMS5003;36277;32.852;-116.998;2023-05-10T11:29:08;3.00;3.00;2.00
45700;PMS5003;36277;32.852;-116.998;2023-05-10T11:31:34;2.00;2.00;2.00
45700;PMS5003;36277;32.852;-116.998;2023-05-10T11:34:01;2.60;2.60;2.00
45700;PMS5003;36277;32.852;-116.998;2023-05-10T11:36:28;2.00;2.00;1.00
45700;PMS5003;36277;32.852;-116.998;2023-05-10T11:38:58;3.00;3.00;2.00
45700;PMS5003;36277;32.852;-116.998;2023-05-10T11:41:24;2.40;2.40;2.00
45700;PMS5003;36277;32.852;-116.998;2023-05-10T11:43:52;2.40;2.40;2.20
45700;PMS5003;36277;32.852;-116.998;2023-05-10T11:46:20;3.20;3.20;2.00
45700;PMS5003;36277;32.852;-116.998;2023-05-10T11:48:51;4.00;4.00;2.00
45700;PMS5003;36277;32.852;-116.998;2023-05-10T11:51:23;3.00;3.00;2.00
45700;PMS5003;36277;32.852;-116.998;2023-05-10T11:53:54;2.00;2.00;1.40
45700;PMS5003;36277;32.852;-116.998;2023-05-10T11:56:21;2.40;2.40;2.00
45700;PMS5003;36277;32.852;-116.998;2023-05-10T11:58:55;2.00;2.00;1.00
45700;PMS5003;36277;32.852;-116.998;2023-05-10T12:01:26;2.20;2.20;1.60
45700;PMS5003;36277;32.852;-116.998;2023-05-10T12:03:53;2.00;2.00;2.00
45700;PMS5003;36277;32.852;-116.998;2023-05-10T12:06:29;2.00;2.00;2.00
45700;PMS5003;36277;32.852;-116.998;2023-05-10T12:08:57;1.60;1.60;1.00
45700;PMS5003;36277;32.852;-116.998;2023-05-10T12:11:24;3.60;3.60;3.00
45700;PMS5003;36277;32.852;-116.998;2023-05-10T12:13:52;2.00;2.00;2.00
45700;PMS5003;36277;32.852;-116.998;2023-05-10T12:16:20;1.80;1.80;1.00
45700;PMS5003;36277;32.852;-116.998;2023-05-10T12:18:50;2.40;2.40;2.00
45700;PMS5003;36277;32.852;-116.998;2023-05-10T12:21:18;2.20;2.20;2.00
45700;PMS5003;36277;32.852;-116.998;2023-05-10T12:23:46;3.00;3.00;2.00
45700;PMS5003;36277;32.852;-116.998;2023-05-10T12:26:16;3.20;3.20;2.60
45700;PMS5003;36277;32.852;-116.998;2023-05-10T12:28:43;2.20;2.20;1.20
45700;PMS5003;36277;32.852;-116.998;2023-05-10T12:31:09;2.00;2.00;1.00
45700;PMS5003;36277;32.852;-116.998;2023-05-10T12:33:39;2.80;2.80;2.00
45700;PMS5003;36277;32.852;-116.998;2023-05-10T12:36:11;2.00;2.00;1.00
45700;PMS5003;36277;32.852;-116.998;2023-05-10T12:38:39;1.00;1.00;1.00
45700;PMS5003;36277;32.852;-116.998;2023-05-10T12:41:13;2.00;2.00;1.00
45700;PMS5003;36277;32.852;-116.998;2023-05-10T12:43:41;1.00;1.00;1.00
45700;PMS5003;36277;32.852;-116.998;2023-05-10T12:46:08;2.00;2.00;1.60
45700;PMS5003;36277;32.852;-116.998;2023-05-10T12:48:36;2.00;2.00;2.00
45700;PMS5003;36277;32.852;-116.998;2023-05-10T12:51:04;2.00;2.00;1.40
45700;PMS5003;36277;32.852;-116.998;2023-05-10T12:53:33;1.00;1.00;1.00
45700;PMS5003;36277;32.852;-116.998;2023-05-10T12:56:00;1.20;1.20;1.00
45700;PMS5003;36277;32.852;-116.998;2023-05-10T12:58:26;1.00;1.00;1.00
45700;PMS5003;36277;32.852;-116.998;2023-05-10T13:00:52;1.00;1.00;0.40
45700;PMS5003;36277;32.852;-116.998;2023-05-10T13:03:21;1.40;1.00;1.00
45700;PMS5003;36277;32.852;-116.998;2023-05-10T13:05:48;1.00;1.00;0.40
45700;PMS5003;36277;32.852;-116.998;2023-05-10T13:08:14;1.00;1.00;1.00
45700;PMS5003;36277;32.852;-116.998;2023-05-10T13:10:41;1.40;1.40;1.00
45700;PMS5003;36277;32.852;-116.998;2023-05-10T13:13:07;2.00;2.00;1.00
45700;PMS5003;36277;32.852;-116.998;2023-05-10T13:15:33;2.00;2.00;2.00
45700;PMS5003;36277;32.852;-116.998;2023-05-10T13:18:00;1.00;1.00;1.00
45700;PMS5003;36277;32.852;-116.998;2023-05-10T13:20:26;1.00;1.00;0.40
45700;PMS5003;36277;32.852;-116.998;2023-05-10T13:22:53;1.00;1.00;1.00
45700;PMS5003;36277;32.852;-116.998;2023-05-10T13:25:19;2.00;2.00;2.00
45700;PMS5003;36277;32.852;-116.998;2023-05-10T13:27:45;1.40;1.40;0.60
45700;PMS5003;36277;32.852;-116.998;2023-05-10T13:30:11;0.00;0.00;0.00
45700;PMS5003;36277;32.852;-116.998;2023-05-10T13:32:38;1.20;1.20;1.00
45700;PMS5003;36277;32.852;-116.998;2023-05-10T13:35:05;1.00;1.00;1.00
45700;PMS5003;36277;32.852;-116.998;2023-05-10T13:37:31;1.00;1.00;0.60
45700;PMS5003;36277;32.852;-116.998;2023-05-10T13:40:00;1.00;1.00;1.00
45700;PMS5003;36277;32.852;-116.998;2023-05-10T13:42:27;1.00;1.00;1.00
45700;PMS5003;36277;32.852;-116.998;2023-05-10T13:44:53;1.80;1.80;1.20
45700;PMS5003;36277;32.852;-116.998;2023-05-10T13:47:20;1.00;1.00;1.00
45700;PMS5003;36277;32.852;-116.998;2023-05-10T13:49:47;0.80;0.80;0.80
45700;PMS5003;36277;32.852;-116.998;2023-05-10T13:52:13;1.00;1.00;1.00
45700;PMS5003;36277;32.852;-116.998;2023-05-10T13:54:40;2.00;2.00;2.00
45700;PMS5003;36277;32.852;-116.998;2023-05-10T13:57:06;1.00;1.00;0.00
45700;PMS5003;36277;32.852;-116.998;2023-05-10T13:59:32;1.00;1.00;1.00
45700;PMS5003;36277;32.852;-116.998;2023-05-10T14:01:59;1.40;1.40;1.20
45700;PMS5003;36277;32.852;-116.998;2023-05-10T14:04:28;0.40;0.40;0.40
45700;PMS5003;36277;32.852;-116.998;2023-05-10T14:06:54;1.20;1.20;1.00
45700;PMS5003;36277;32.852;-116.998;2023-05-10T14:09:21;3.80;3.80;3.20
45700;PMS5003;36277;32.852;-116.998;2023-05-10T14:11:47;4.40;4.40;3.00
45700;PMS5003;36277;32.852;-116.998;2023-05-10T14:14:13;6.00;6.00;4.20